sensor_id;sensor_type;location;lat;lon;timestamp;P1;durP1;ratioP1;P2;durP2;ratioP2
14768;SDS011;7476;49.404;11.152;2024-03-22T00:00:59;20.23;;;12.30;;
14768;SDS011;7476;49.404;11.152;2024-03-22T00:03:26;18.40;;;12.27;;
14768;SDS011;7476;49.404;11.152;2024-03-22T00:05:51;18.80;;;12.17;;
14768;SDS011;7476;49.404;11.152;2024-03-22T00:08:18;19.93;;;12.87;;
14768;SDS011;7476;49.404;11.152;2024-03-22T00:10:44;19.03;;;12.67;;
14768;SDS011;7476;49.404;11.152;2024-03-22T00:13:10;17.77;;;12.13;;
14768;SDS011;7476;49.404;11.152;2024-03-22T00:15:37;17.50;;;11.43;;
14768;SDS011;7476;49.404;11.152;2024-03-22T00:18:04;18.20;;;11.50;;
14768;SDS011;7476;49.404;11.152;2024-03-22T00:20:30;17.77;;;11.53;;
14768;SDS011;7476;49.404;11.152;2024-03-22T00:22:56;19.47;;;12.33;;
14768;SDS011;7476;49.404;11.152;2024-03-22T00:25:22;15.90;;;10.90;;
14768;SDS011;7476;49.404;11.152;2024-03-22T00:27:48;17.57;;;11.53;;
14768;SDS011;7476;49.404;11.152;2024-03-22T00:30:14;18.77;;;11.63;;
14768;SDS011;7476;49.404;11.152;2024-03-22T00:32:42;18.33;;;11.93;;
14768;SDS011;7476;49.404;11.152;2024-03-22T00:35:09;17.13;;;11.20;;
14768;SDS011;7476;49.404;11.152;2024-03-22T00:37:36;19.20;;;11.60;;
14768;SDS011;7476;49.404;11.152;2024-03-22T00:40:01;18.03;;;10.70;;
14768;SDS011;7476;49.404;11.152;2024-03-22T00:42:29;16.97;;;10.87;;
14768;SDS011;7476;49.404;11.152;2024-03-22T00:44:55;17.97;;;10.80;;
14768;SDS011;7476;49.404;11.152;2024-03-22T00:47:22;16.30;;;10.63;;
14768;SDS011;7476;49.404;11.152;2024-03-22T00:49:50;19.20;;;12.10;;
14768;SDS011;7476;49.404;11.152;2024-03-22T00:52:16;19.77;;;12.57;;
14768;SDS011;7476;49.404;11.152;2024-03-22T00:54:42;17.23;;;11.37;;
14768;SDS011;7476;49.404;11.152;2024-03-22T00:57:09;20.77;;;12.10;;
14768;SDS011;7476;49.404;11.152;2024-03-22T00:59:34;16.20;;;11.17;;
14768;SDS011;7476;49.404;11.152;2024-03-22T01:02:01;16.83;;;11.30;;
14768;SDS011;7476;49.404;11.152;2024-03-22T01:04:28;15.90;;;11.30;;
14768;SDS011;7476;49.404;11.152;2024-03-22T01:06:56;16.73;;;11.20;;
14768;SDS011;7476;49.404;11.152;2024-03-22T01:09:22;19.00;;;12.50;;
14768;SDS011;7476;49.404;11.152;2024-03-22T01:11:49;17.13;;;11.87;;
14768;SDS011;7476;49.404;11.152;2024-03-22T01:14:14;18.63;;;12.07;;
14768;SDS011;7476;49.404;11.152;2024-03-22T01:16:41;19.07;;;11.97;;
14768;SDS011;7476;49.404;11.152;2024-03-22T01:19:07;15.90;;;10.87;;
14768;SDS011;7476;49.404;11.152;2024-03-22T01:21:34;19.17;;;11.93;;
14768;SDS011;7476;49.404;11.152;2024-03-22T01:24:02;17.27;;;11.67;;
14768;SDS011;7476;49.404;11.152;2024-03-22T01:26:28;16.37;;;11.43;;
14768;SDS011;7476;49.404;11.152;2024-03-22T01:28:54;17.33;;;11.67;;
14768;SDS011;7476;49.404;11.152;2024-03-22T01:31:21;16.93;;;11.53;;
14768;SDS011;7476;49.404;11.152;2024-03-22T01:33:47;20.23;;;12.43;;
14768;SDS011;7476;49.404;11.152;2024-03-22T01:36:13;18.77;;;13.57;;
14768;SDS011;7476;49.404;11.152;2024-03-22T01:38:39;19.37;;;12.67;;
14768;SDS011;7476;49.404;11.152;2024-03-22T01:41:07;19.47;;;12.47;;
14768;SDS011;7476;49.404;11.152;2024-03-22T01:43:33;19.47;;;12.07;;
14768;SDS011;7476;49.404;11.152;2024-03-22T01:45:59;20.77;;;13.13;;
14768;SDS011;7476;49.404;11.152;2024-03-22T01:48:25;18.87;;;12.63;;
14768;SDS011;7476;49.404;11.152;2024-03-22T01:50:52;20.63;;;13.03;;
14768;SDS011;7476;49.404;11.152;2024-03-22T01:53:18;17.30;;;11.97;;
14768;SDS011;7476;49.404;11.152;2024-03-22T01:55:45;16.03;;;11.17;;
14768;SDS011;7476;49.404;11.152;2024-03-22T01:58:12;19.53;;;13.27;;
14768;SDS011;7476;49.404;11.152;2024-03-22T02:00:39;18.00;;;11.63;;
14768;SDS011;7476;49.404;11.152;2024-03-22T02:03:05;18.80;;;11.40;;
14768;SDS011;7476;49.404;11.152;2024-03-22T02:05:31;18.73;;;12.50;;
14768;SDS011;7476;49.404;11.152;2024-03-22T02:07:57;16.77;;;11.90;;
14768;SDS011;7476;49.404;11.152;2024-03-22T02:10:24;21.43;;;12.73;;
14768;SDS011;7476;49.404;11.152;2024-03-22T02:12:49;18.87;;;12.63;;
14768;SDS011;7476;49.404;11.152;2024-03-22T02:15:17;19.83;;;12.63;;
14768;SDS011;7476;49.404;11.152;2024-03-22T02:17:43;20.23;;;12.40;;
14768;SDS011;7476;49.404;11.152;2024-03-22T02:20:10;19.20;;;12.47;;
14768;SDS011;7476;49.404;11.152;2024-03-22T02:22:37;17.73;;;11.93;;
14768;SDS011;7476;49.404;11.152;2024-03-22T02:25:05;18.07;;;12.63;;
14768;SDS011;7476;49.404;11.152;2024-03-22T02:27:32;20.53;;;12.20;;
14768;SDS011;7476;49.404;11.152;2024-03-22T02:29:59;16.93;;;11.47;;
14768;SDS011;7476;49.404;11.152;2024-03-22T02:32:25;16.97;;;11.00;;
14768;SDS011;7476;49.404;11.152;2024-03-22T02:34:51;18.47;;;11.17;;
14768;SDS011;7476;49.404;11.152;2024-03-22T02:37:17;17.73;;;11.17;;
14768;SDS011;7476;49.404;11.152;2024-03-22T02:39:44;19.83;;;11.67;;
14768;SDS011;7476;49.404;11.152;2024-03-22T02:42:11;18.10;;;11.00;;
14768;SDS011;7476;49.404;11.152;2024-03-22T02:44:38;20.50;;;11.97;;
14768;SDS011;7476;49.404;11.152;2024-03-22T02:47:07;17.90;;;11.63;;
14768;SDS011;7476;49.404;11.152;2024-03-22T02:49:34;16.53;;;11.13;;
14768;SDS011;7476;49.404;11.152;2024-03-22T02:52:00;19.37;;;11.97;;
14768;SDS011;7476;49.404;11.152;2024-03-22T02:54:26;19.23;;;11.63;;
14768;SDS011;7476;49.404;11.152;2024-03-22T02:56:52;18.73;;;11.17;;
14768;SDS011;7476;49.404;11.152;2024-03-22T02:59:20;17.30;;;11.87;;
14768;SDS011;7476;49.404;11.152;2024-03-22T03:01:46;18.03;;;11.70;;
14768;SDS011;7476;49.404;11.152;2024-03-22T03:04:12;16.40;;;11.40;;
14768;SDS011;7476;49.404;11.152;2024-03-22T03:06:38;19.30;;;12.30;;
14768;SDS011;7476;49.404;11.152;2024-03-22T03:09:05;20.33;;;11.00;;
14768;SDS011;7476;49.404;11.152;2024-03-22T03:11:32;18.83;;;11.30;;
14768;SDS011;7476;49.404;11.152;2024-03-22T03:13:59;18.03;;;11.83;;
14768;SDS011;7476;49.404;11.152;2024-03-22T03:16:26;18.70;;;12.27;;
14768;SDS011;7476;49.404;11.152;2024-03-22T03:18:52;18.73;;;11.57;;
14768;SDS011;7476;49.404;11.152;2024-03-22T03:21:18;18.00;;;11.77;;
14768;SDS011;7476;49.404;11.152;2024-03-22T03:23:45;20.73;;;12.37;;
14768;SDS011;7476;49.404;11.152;2024-03-22T03:26:11;19.23;;;12.07;;
14768;SDS011;7476;49.404;11.152;2024-03-22T03:28:38;16.77;;;11.57;;
14768;SDS011;7476;49.404;11.152;2024-03-22T03:31:04;20.53;;;12.33;;
14768;SDS011;7476;49.404;11.152;2024-03-22T03:33:32;19.27;;;11.63;;
14768;SDS011;7476;49.404;11.152;2024-03-22T03:35:57;22.60;;;12.47;;
14768;SDS011;7476;49.404;11.152;2024-03-22T03:38:24;20.03;;;12.37;;
14768;SDS011;7476;49.404;11.152;2024-03-22T03:40:50;19.60;;;12.27;;
14768;SDS011;7476;49.404;11.152;2024-03-22T03:43:16;18.20;;;11.70;;
14768;SDS011;7476;49.404;11.152;2024-03-22T03:45:42;18.20;;;11.80;;
14768;SDS011;7476;49.404;11.152;2024-03-22T03:48:09;18.17;;;12.97;;
14768;SDS011;7476;49.404;11.152;2024-03-22T03:50:36;21.13;;;13.07;;
14768;SDS011;7476;49.404;11.152;2024-03-22T03:53:02;22.50;;;13.63;;
14768;SDS011;7476;49.404;11.152;2024-03-22T03:55:28;21.53;;;13.60;;
14768;SDS011;7476;49.404;11.152;2024-03-22T03:57:55;19.80;;;12.83;;
14768;SDS011;7476;49.404;11.152;2024-03-22T04:00:20;20.53;;;13.27;;
14768;SDS011;7476;49.404;11.152;2024-03-22T04:02:48;23.67;;;13.63;;
14768;SDS011;7476;49.404;11.152;2024-03-22T04:05:14;21.53;;;14.23;;
14768;SDS011;7476;49.404;11.152;2024-03-22T04:07:42;21.83;;;13.33;;
14768;SDS011;7476;49.404;11.152;2024-03-22T04:10:11;24.30;;;13.83;;
14768;SDS011;7476;49.404;11.152;2024-03-22T04:12:38;24.33;;;13.43;;
14768;SDS011;7476;49.404;11.152;2024-03-22T04:15:04;19.27;;;12.73;;
14768;SDS011;7476;49.404;11.152;2024-03-22T04:17:32;22.33;;;13.20;;
14768;SDS011;7476;49.404;11.152;2024-03-22T04:19:58;24.73;;;13.90;;
14768;SDS011;7476;49.404;11.152;2024-03-22T04:22:25;20.63;;;12.40;;
14768;SDS011;7476;49.404;11.152;2024-03-22T04:24:52;17.33;;;12.07;;
14768;SDS011;7476;49.404;11.152;2024-03-22T04:27:18;20.47;;;12.13;;
14768;SDS011;7476;49.404;11.152;2024-03-22T04:29:46;21.37;;;12.20;;
14768;SDS011;7476;49.404;11.152;2024-03-22T04:32:13;19.63;;;12.30;;
14768;SDS011;7476;49.404;11.152;2024-03-22T04:34:41;20.47;;;12.40;;
14768;SDS011;7476;49.404;11.152;2024-03-22T04:37:07;20.73;;;13.10;;
14768;SDS011;7476;49.404;11.152;2024-03-22T04:39:34;21.77;;;13.43;;
14768;SDS011;7476;49.404;11.152;2024-03-22T04:42:02;22.37;;;13.17;;
14768;SDS011;7476;49.404;11.152;2024-03-22T04:44:28;20.63;;;13.10;;
14768;SDS011;7476;49.404;11.152;2024-03-22T04:46:55;19.80;;;13.00;;
14768;SDS011;7476;49.404;11.152;2024-03-22T04:49:22;20.80;;;13.63;;
14768;SDS011;7476;49.404;11.152;2024-03-22T04:51:48;19.90;;;13.47;;
14768;SDS011;7476;49.404;11.152;2024-03-22T04:54:14;22.57;;;14.20;;
14768;SDS011;7476;49.404;11.152;2024-03-22T04:56:40;21.10;;;13.20;;
14768;SDS011;7476;49.404;11.152;2024-03-22T04:59:08;23.00;;;14.47;;
14768;SDS011;7476;49.404;11.152;2024-03-22T05:01:34;20.60;;;12.83;;
14768;SDS011;7476;49.404;11.152;2024-03-22T05:04:00;21.93;;;12.90;;
14768;SDS011;7476;49.404;11.152;2024-03-22T05:06:26;22.73;;;13.97;;
14768;SDS011;7476;49.404;11.152;2024-03-22T05:08:53;22.17;;;13.70;;
14768;SDS011;7476;49.404;11.152;2024-03-22T05:11:18;22.43;;;13.40;;
14768;SDS011;7476;49.404;11.152;2024-03-22T05:13:45;20.20;;;13.13;;
14768;SDS011;7476;49.404;11.152;2024-03-22T05:16:13;20.40;;;13.47;;
14768;SDS011;7476;49.404;11.152;2024-03-22T05:18:39;20.43;;;13.13;;
14768;SDS011;7476;49.404;11.152;2024-03-22T05:21:05;24.13;;;13.83;;
14768;SDS011;7476;49.404;11.152;2024-03-22T05:23:32;22.47;;;13.57;;
14768;SDS011;7476;49.404;11.152;2024-03-22T05:25:58;18.90;;;12.30;;
14768;SDS011;7476;49.404;11.152;2024-03-22T05:28:24;24.10;;;14.03;;
14768;SDS011;7476;49.404;11.152;2024-03-22T05:30:50;22.87;;;13.67;;
14768;SDS011;7476;49.404;11.152;2024-03-22T05:33:18;18.67;;;12.80;;
14768;SDS011;7476;49.404;11.152;2024-03-22T05:35:44;23.60;;;13.20;;
14768;SDS011;7476;49.404;11.152;2024-03-22T05:38:10;23.70;;;13.03;;
14768;SDS011;7476;49.404;11.152;2024-03-22T05:40:36;24.43;;;13.77;;
14768;SDS011;7476;49.404;11.152;2024-03-22T05:43:04;20.50;;;12.70;;
14768;SDS011;7476;49.404;11.152;2024-03-22T05:45:30;25.10;;;14.80;;
14768;SDS011;7476;49.404;11.152;2024-03-22T05:47:56;23.13;;;14.03;;
14768;SDS011;7476;49.404;11.152;2024-03-22T05:50:23;21.90;;;13.37;;
14768;SDS011;7476;49.404;11.152;2024-03-22T05:52:50;22.87;;;14.50;;
14768;SDS011;7476;49.404;11.152;2024-03-22T05:55:16;27.27;;;14.83;;
14768;SDS011;7476;49.404;11.152;2024-03-22T05:57:43;22.97;;;14.03;;
14768;SDS011;7476;49.404;11.152;2024-03-22T06:00:09;24.43;;;15.37;;
14768;SDS011;7476;49.404;11.152;2024-03-22T06:02:38;22.70;;;14.87;;
14768;SDS011;7476;49.404;11.152;2024-03-22T06:05:04;23.83;;;14.33;;
14768;SDS011;7476;49.404;11.152;2024-03-22T06:07:32;26.13;;;15.30;;
14768;SDS011;7476;49.404;11.152;2024-03-22T06:10:06;24.27;;;14.87;;
14768;SDS011;7476;49.404;11.152;2024-03-22T06:12:33;23.60;;;14.77;;
14768;SDS011;7476;49.404;11.152;2024-03-22T06:14:58;25.27;;;15.57;;
14768;SDS011;7476;49.404;11.152;2024-03-22T06:17:25;22.00;;;14.57;;
14768;SDS011;7476;49.404;11.152;2024-03-22T06:19:51;23.20;;;14.40;;
14768;SDS011;7476;49.404;11.152;2024-03-22T06:22:17;23.70;;;14.70;;
14768;SDS011;7476;49.404;11.152;2024-03-22T06:24:45;25.10;;;14.73;;
14768;SDS011;7476;49.404;11.152;2024-03-22T06:27:12;23.13;;;14.07;;
14768;SDS011;7476;49.404;11.152;2024-03-22T06:29:39;26.03;;;15.33;;
14768;SDS011;7476;49.404;11.152;2024-03-22T06:32:06;22.13;;;14.97;;
14768;SDS011;7476;49.404;11.152;2024-03-22T06:34:32;23.97;;;15.13;;
14768;SDS011;7476;49.404;11.152;2024-03-22T06:36:59;25.20;;;15.77;;
14768;SDS011;7476;49.404;11.152;2024-03-22T06:39:25;22.23;;;15.10;;
14768;SDS011;7476;49.404;11.152;2024-03-22T06:41:53;19.47;;;14.20;;
14768;SDS011;7476;49.404;11.152;2024-03-22T06:44:18;21.03;;;14.70;;
14768;SDS011;7476;49.404;11.152;2024-03-22T06:46:45;20.40;;;14.23;;
14768;SDS011;7476;49.404;11.152;2024-03-22T06:49:11;20.30;;;13.90;;
14768;SDS011;7476;49.404;11.152;2024-03-22T06:51:37;18.30;;;13.37;;
14768;SDS011;7476;49.404;11.152;2024-03-22T06:54:03;15.20;;;11.77;;
14768;SDS011;7476;49.404;11.152;2024-03-22T06:56:30;17.43;;;12.57;;
14768;SDS011;7476;49.404;11.152;2024-03-22T06:58:57;17.13;;;12.33;;
14768;SDS011;7476;49.404;11.152;2024-03-22T07:01:23;17.87;;;13.40;;
14768;SDS011;7476;49.404;11.152;2024-03-22T07:03:49;19.90;;;13.63;;
14768;SDS011;7476;49.404;11.152;2024-03-22T07:06:17;17.57;;;13.07;;
14768;SDS011;7476;49.404;11.152;2024-03-22T07:08:43;22.40;;;15.73;;
14768;SDS011;7476;49.404;11.152;2024-03-22T07:11:09;23.13;;;15.63;;
14768;SDS011;7476;49.404;11.152;2024-03-22T07:13:35;19.37;;;14.63;;
14768;SDS011;7476;49.404;11.152;2024-03-22T07:16:04;22.50;;;15.33;;
14768;SDS011;7476;49.404;11.152;2024-03-22T07:18:30;21.93;;;13.87;;
14768;SDS011;7476;49.404;11.152;2024-03-22T07:20:56;23.13;;;14.97;;
14768;SDS011;7476;49.404;11.152;2024-03-22T07:23:23;24.00;;;15.83;;
14768;SDS011;7476;49.404;11.152;2024-03-22T07:25:49;21.63;;;15.13;;
14768;SDS011;7476;49.404;11.152;2024-03-22T07:28:15;21.97;;;15.73;;
14768;SDS011;7476;49.404;11.152;2024-03-22T07:30:42;22.00;;;15.47;;
14768;SDS011;7476;49.404;11.152;2024-03-22T07:33:09;22.93;;;15.87;;
14768;SDS011;7476;49.404;11.152;2024-03-22T07:35:38;24.27;;;15.50;;
14768;SDS011;7476;49.404;11.152;2024-03-22T07:38:04;19.57;;;13.83;;
14768;SDS011;7476;49.404;11.152;2024-03-22T07:40:30;21.00;;;14.20;;
14768;SDS011;7476;49.404;11.152;2024-03-22T07:42:56;22.33;;;15.60;;
14768;SDS011;7476;49.404;11.152;2024-03-22T07:45:24;21.37;;;15.17;;
14768;SDS011;7476;49.404;11.152;2024-03-22T07:47:50;22.00;;;14.47;;
14768;SDS011;7476;49.404;11.152;2024-03-22T07:50:18;23.50;;;15.60;;
14768;SDS011;7476;49.404;11.152;2024-03-22T07:52:43;24.50;;;15.83;;
14768;SDS011;7476;49.404;11.152;2024-03-22T07:55:10;26.73;;;17.30;;
14768;SDS011;7476;49.404;11.152;2024-03-22T07:57:36;25.43;;;17.77;;
14768;SDS011;7476;49.404;11.152;2024-03-22T08:00:03;25.23;;;16.70;;
14768;SDS011;7476;49.404;11.152;2024-03-22T08:02:30;24.50;;;17.10;;
14768;SDS011;7476;49.404;11.152;2024-03-22T08:04:57;25.87;;;18.00;;
14768;SDS011;7476;49.404;11.152;2024-03-22T08:07:24;25.63;;;17.20;;
14768;SDS011;7476;49.404;11.152;2024-03-22T08:09:51;24.63;;;17.30;;
14768;SDS011;7476;49.404;11.152;2024-03-22T08:12:16;26.70;;;18.23;;
14768;SDS011;7476;49.404;11.152;2024-03-22T08:14:44;28.47;;;19.23;;
14768;SDS011;7476;49.404;11.152;2024-03-22T08:17:10;26.53;;;18.60;;
14768;SDS011;7476;49.404;11.152;2024-03-22T08:19:36;26.90;;;18.70;;
14768;SDS011;7476;49.404;11.152;2024-03-22T08:22:03;24.23;;;18.03;;
14768;SDS011;7476;49.404;11.152;2024-03-22T08:24:31;24.40;;;18.10;;
14768;SDS011;7476;49.404;11.152;2024-03-22T08:26:57;27.03;;;17.70;;
14768;SDS011;7476;49.404;11.152;2024-03-22T08:29:24;23.77;;;16.97;;
14768;SDS011;7476;49.404;11.152;2024-03-22T08:31:49;24.60;;;17.47;;
14768;SDS011;7476;49.404;11.152;2024-03-22T08:34:16;24.03;;;16.47;;
14768;SDS011;7476;49.404;11.152;2024-03-22T08:36:41;20.50;;;15.83;;
14768;SDS011;7476;49.404;11.152;2024-03-22T08:39:08;21.07;;;15.23;;
14768;SDS011;7476;49.404;11.152;2024-03-22T08:41:36;21.00;;;15.67;;
14768;SDS011;7476;49.404;11.152;2024-03-22T08:44:03;23.77;;;15.90;;
14768;SDS011;7476;49.404;11.152;2024-03-22T08:46:29;20.43;;;15.00;;
14768;SDS011;7476;49.404;11.152;2024-03-22T08:48:57;17.57;;;13.63;;
14768;SDS011;7476;49.404;11.152;2024-03-22T08:51:23;16.40;;;12.33;;
14768;SDS011;7476;49.404;11.152;2024-03-22T08:53:49;15.47;;;11.50;;
14768;SDS011;7476;49.404;11.152;2024-03-22T08:56:15;13.70;;;11.13;;
14768;SDS011;7476;49.404;11.152;2024-03-22T08:58:43;14.00;;;10.37;;
14768;SDS011;7476;49.404;11.152;2024-03-22T09:01:09;13.37;;;9.90;;
14768;SDS011;7476;49.404;11.152;2024-03-22T09:03:36;11.70;;;9.70;;
14768;SDS011;7476;49.404;11.152;2024-03-22T09:06:02;11.47;;;9.77;;
14768;SDS011;7476;49.404;11.152;2024-03-22T09:08:29;11.20;;;9.80;;
14768;SDS011;7476;49.404;11.152;2024-03-22T09:10:54;12.97;;;9.77;;
14768;SDS011;7476;49.404;11.152;2024-03-22T09:13:21;11.50;;;10.30;;
14768;SDS011;7476;49.404;11.152;2024-03-22T09:15:48;10.93;;;9.67;;
14768;SDS011;7476;49.404;11.152;2024-03-22T09:18:22;11.30;;;10.10;;
14768;SDS011;7476;49.404;11.152;2024-03-22T09:20:48;11.33;;;10.13;;
14768;SDS011;7476;49.404;11.152;2024-03-22T09:23:15;12.50;;;9.67;;
14768;SDS011;7476;49.404;11.152;2024-03-22T09:25:40;11.50;;;9.70;;
14768;SDS011;7476;49.404;11.152;2024-03-22T09:28:07;11.80;;;10.07;;
14768;SDS011;7476;49.404;11.152;2024-03-22T09:30:35;11.17;;;10.00;;
14768;SDS011;7476;49.404;11.152;2024-03-22T09:33:05;12.00;;;10.10;;
14768;SDS011;7476;49.404;11.152;2024-03-22T09:35:32;11.57;;;9.60;;
14768;SDS011;7476;49.404;11.152;2024-03-22T09:37:59;13.13;;;9.90;;
14768;SDS011;7476;49.404;11.152;2024-03-22T09:40:25;13.77;;;10.33;;
14768;SDS011;7476;49.404;11.152;2024-03-22T09:42:52;12.73;;;9.90;;
14768;SDS011;7476;49.404;11.152;2024-03-22T09:45:18;13.83;;;10.57;;
14768;SDS011;7476;49.404;11.152;2024-03-22T09:47:45;10.87;;;9.70;;
14768;SDS011;7476;49.404;11.152;2024-03-22T09:50:14;13.23;;;10.03;;
14768;SDS011;7476;49.404;11.152;2024-03-22T09:52:41;12.17;;;9.87;;
14768;SDS011;7476;49.404;11.152;2024-03-22T09:55:09;13.90;;;9.53;;
14768;SDS011;7476;49.404;11.152;2024-03-22T09:57:35;13.70;;;10.00;;
14768;SDS011;7476;49.404;11.152;2024-03-22T10:00:04;13.00;;;9.23;;
14768;SDS011;7476;49.404;11.152;2024-03-22T10:02:33;10.13;;;9.07;;
14768;SDS011;7476;49.404;11.152;2024-03-22T10:04:59;10.23;;;9.10;;
14768;SDS011;7476;49.404;11.152;2024-03-22T10:07:28;11.83;;;8.80;;
14768;SDS011;7476;49.404;11.152;2024-03-22T10:09:57;10.50;;;8.87;;
14768;SDS011;7476;49.404;11.152;2024-03-22T10:12:24;12.80;;;9.60;;
14768;SDS011;7476;49.404;11.152;2024-03-22T10:14:50;10.40;;;8.57;;
14768;SDS011;7476;49.404;11.152;2024-03-22T10:17:18;11.40;;;9.77;;
14768;SDS011;7476;49.404;11.152;2024-03-22T10:19:44;11.87;;;9.60;;
14768;SDS011;7476;49.404;11.152;2024-03-22T10:22:10;10.23;;;9.10;;
14768;SDS011;7476;49.404;11.152;2024-03-22T10:24:37;9.93;;;8.67;;
14768;SDS011;7476;49.404;11.152;2024-03-22T10:27:04;10.87;;;8.33;;
14768;SDS011;7476;49.404;11.152;2024-03-22T10:29:30;10.40;;;8.30;;
14768;SDS011;7476;49.404;11.152;2024-03-22T10:31:58;10.87;;;9.10;;
14768;SDS011;7476;49.404;11.152;2024-03-22T10:34:26;10.73;;;8.27;;
14768;SDS011;7476;49.404;11.152;2024-03-22T10:36:53;8.67;;;7.53;;
14768;SDS011;7476;49.404;11.152;2024-03-22T10:39:21;9.13;;;7.13;;
14768;SDS011;7476;49.404;11.152;2024-03-22T10:41:50;8.30;;;7.40;;
14768;SDS011;7476;49.404;11.152;2024-03-22T10:44:16;8.90;;;7.70;;
14768;SDS011;7476;49.404;11.152;2024-03-22T10:46:44;10.17;;;8.20;;
14768;SDS011;7476;49.404;11.152;2024-03-22T10:49:12;8.73;;;7.47;;
14768;SDS011;7476;49.404;11.152;2024-03-22T10:51:44;9.80;;;8.33;;
14768;SDS011;7476;49.404;11.152;2024-03-22T10:54:18;10.00;;;8.40;;
14768;SDS011;7476;49.404;11.152;2024-03-22T10:56:47;9.43;;;8.43;;
14768;SDS011;7476;49.404;11.152;2024-03-22T10:59:15;10.60;;;9.10;;
14768;SDS011;7476;49.404;11.152;2024-03-22T11:01:46;11.83;;;9.10;;
14768;SDS011;7476;49.404;11.152;2024-03-22T11:04:11;9.53;;;8.07;;
14768;SDS011;7476;49.404;11.152;2024-03-22T11:06:39;9.50;;;8.23;;
14768;SDS011;7476;49.404;11.152;2024-03-22T11:09:04;9.43;;;7.67;;
14768;SDS011;7476;49.404;11.152;2024-03-22T11:11:31;11.77;;;9.30;;
14768;SDS011;7476;49.404;11.152;2024-03-22T11:14:02;10.07;;;8.70;;
14768;SDS011;7476;49.404;11.152;2024-03-22T11:16:30;9.27;;;8.37;;
14768;SDS011;7476;49.404;11.152;2024-03-22T11:18:56;9.73;;;8.73;;
14768;SDS011;7476;49.404;11.152;2024-03-22T11:21:23;9.87;;;8.87;;
14768;SDS011;7476;49.404;11.152;2024-03-22T11:23:49;10.00;;;6.70;;
14768;SDS011;7476;49.404;11.152;2024-03-22T11:26:16;8.57;;;6.93;;
14768;SDS011;7476;49.404;11.152;2024-03-22T11:28:43;7.53;;;5.90;;
14768;SDS011;7476;49.404;11.152;2024-03-22T11:31:09;6.33;;;5.73;;
14768;SDS011;7476;49.404;11.152;2024-03-22T11:33:36;8.23;;;5.90;;
14768;SDS011;7476;49.404;11.152;2024-03-22T11:36:04;6.90;;;5.53;;
14768;SDS011;7476;49.404;11.152;2024-03-22T11:38:30;6.80;;;5.87;;
14768;SDS011;7476;49.404;11.152;2024-03-22T11:40:58;6.03;;;5.43;;
14768;SDS011;7476;49.404;11.152;2024-03-22T11:43:26;6.93;;;5.57;;
14768;SDS011;7476;49.404;11.152;2024-03-22T11:45:53;7.37;;;5.53;;
14768;SDS011;7476;49.404;11.152;2024-03-22T11:48:19;6.43;;;5.27;;
14768;SDS011;7476;49.404;11.152;2024-03-22T11:50:48;5.70;;;4.80;;
14768;SDS011;7476;49.404;11.152;2024-03-22T11:53:15;7.33;;;4.57;;
14768;SDS011;7476;49.404;11.152;2024-03-22T11:55:42;6.73;;;5.53;;
14768;SDS011;7476;49.404;11.152;2024-03-22T11:58:08;6.10;;;5.23;;
14768;SDS011;7476;49.404;11.152;2024-03-22T12:00:35;7.90;;;5.40;;
14768;SDS011;7476;49.404;11.152;2024-03-22T12:03:03;5.77;;;5.00;;
14768;SDS011;7476;49.404;11.152;2024-03-22T12:05:30;6.67;;;5.60;;
14768;SDS011;7476;49.404;11.152;2024-03-22T12:07:58;7.17;;;5.97;;
14768;SDS011;7476;49.404;11.152;2024-03-22T12:10:24;6.23;;;5.40;;
14768;SDS011;7476;49.404;11.152;2024-03-22T12:12:50;6.53;;;5.60;;
14768;SDS011;7476;49.404;11.152;2024-03-22T12:15:18;4.80;;;4.30;;
14768;SDS011;7476;49.404;11.152;2024-03-22T12:17:44;5.20;;;4.00;;
14768;SDS011;7476;49.404;11.152;2024-03-22T12:20:11;4.83;;;3.57;;
14768;SDS011;7476;49.404;11.152;2024-03-22T12:22:36;4.20;;;3.27;;
14768;SDS011;7476;49.404;11.152;2024-03-22T12:25:05;5.80;;;3.80;;
14768;SDS011;7476;49.404;11.152;2024-03-22T12:27:31;3.90;;;3.60;;
14768;SDS011;7476;49.404;11.152;2024-03-22T12:29:58;4.73;;;4.10;;
14768;SDS011;7476;49.404;11.152;2024-03-22T12:32:24;5.80;;;4.27;;
14768;SDS011;7476;49.404;11.152;2024-03-22T12:34:51;6.70;;;5.17;;
14768;SDS011;7476;49.404;11.152;2024-03-22T12:37:17;8.07;;;5.20;;
14768;SDS011;7476;49.404;11.152;2024-03-22T12:39:43;5.30;;;4.80;;
14768;SDS011;7476;49.404;11.152;2024-03-22T12:42:10;6.67;;;5.37;;
14768;SDS011;7476;49.404;11.152;2024-03-22T12:44:37;7.43;;;5.20;;
14768;SDS011;7476;49.404;11.152;2024-03-22T12:47:03;6.03;;;5.00;;
14768;SDS011;7476;49.404;11.152;2024-03-22T12:49:30;5.30;;;4.80;;
14768;SDS011;7476;49.404;11.152;2024-03-22T12:51:55;5.87;;;4.50;;
14768;SDS011;7476;49.404;11.152;2024-03-22T12:54:22;6.60;;;4.57;;
14768;SDS011;7476;49.404;11.152;2024-03-22T12:56:48;4.87;;;4.13;;
14768;SDS011;7476;49.404;11.152;2024-03-22T12:59:16;5.73;;;5.10;;
14768;SDS011;7476;49.404;11.152;2024-03-22T13:01:42;5.83;;;4.43;;
14768;SDS011;7476;49.404;11.152;2024-03-22T13:04:08;5.37;;;4.87;;
14768;SDS011;7476;49.404;11.152;2024-03-22T13:06:34;5.67;;;4.80;;
14768;SDS011;7476;49.404;11.152;2024-03-22T13:09:01;5.77;;;5.17;;
14768;SDS011;7476;49.404;11.152;2024-03-22T13:11:29;5.63;;;5.10;;
14768;SDS011;7476;49.404;11.152;2024-03-22T13:13:56;6.47;;;5.17;;
14768;SDS011;7476;49.404;11.152;2024-03-22T13:16:23;6.10;;;5.50;;
14768;SDS011;7476;49.404;11.152;2024-03-22T13:18:50;7.73;;;5.30;;
14768;SDS011;7476;49.404;11.152;2024-03-22T13:21:17;5.23;;;4.47;;
14768;SDS011;7476;49.404;11.152;2024-03-22T13:23:44;4.60;;;4.20;;
14768;SDS011;7476;49.404;11.152;2024-03-22T13:26:10;4.90;;;4.40;;
14768;SDS011;7476;49.404;11.152;2024-03-22T13:28:36;5.37;;;4.50;;
14768;SDS011;7476;49.404;11.152;2024-03-22T13:31:02;5.63;;;4.70;;
14768;SDS011;7476;49.404;11.152;2024-03-22T13:33:32;5.13;;;4.47;;
14768;SDS011;7476;49.404;11.152;2024-03-22T13:35:58;6.03;;;4.30;;
14768;SDS011;7476;49.404;11.152;2024-03-22T13:38:25;6.90;;;4.50;;
14768;SDS011;7476;49.404;11.152;2024-03-22T13:40:54;4.20;;;3.80;;
14768;SDS011;7476;49.404;11.152;2024-03-22T13:43:21;6.43;;;4.20;;
14768;SDS011;7476;49.404;11.152;2024-03-22T13:45:48;4.60;;;4.10;;
14768;SDS011;7476;49.404;11.152;2024-03-22T13:48:19;4.40;;;4.00;;
14768;SDS011;7476;49.404;11.152;2024-03-22T13:50:50;5.73;;;4.30;;
14768;SDS011;7476;49.404;11.152;2024-03-22T13:53:17;4.23;;;3.80;;
14768;SDS011;7476;49.404;11.152;2024-03-22T13:55:43;4.80;;;3.93;;
14768;SDS011;7476;49.404;11.152;2024-03-22T13:58:10;5.20;;;4.20;;
14768;SDS011;7476;49.404;11.152;2024-03-22T14:00:37;6.23;;;4.40;;
14768;SDS011;7476;49.404;11.152;2024-03-22T14:03:04;3.87;;;3.57;;
14768;SDS011;7476;49.404;11.152;2024-03-22T14:05:30;6.00;;;4.30;;
14768;SDS011;7476;49.404;11.152;2024-03-22T14:07:59;4.63;;;4.00;;
14768;SDS011;7476;49.404;11.152;2024-03-22T14:10:25;4.43;;;3.93;;
14768;SDS011;7476;49.404;11.152;2024-03-22T14:12:52;4.73;;;4.07;;
14768;SDS011;7476;49.404;11.152;2024-03-22T14:15:18;5.67;;;4.30;;
14768;SDS011;7476;49.404;11.152;2024-03-22T14:17:45;4.93;;;3.87;;
14768;SDS011;7476;49.404;11.152;2024-03-22T14:20:11;4.97;;;3.67;;
14768;SDS011;7476;49.404;11.152;2024-03-22T14:22:38;4.20;;;3.80;;
14768;SDS011;7476;49.404;11.152;2024-03-22T14:25:07;4.33;;;3.93;;